Time;durP1;ratioP1;P1;durP2;ratioP2;P2;SDS_P1;SDS_P2;PMS_P1;PMS_P2;Temp;Humidity;BMP_temperature;BMP_pressure;BME280_temperature;BME280_humidity;BME280_pressure;Samples;Min_cycle;Max_cycle;Signal;HPM_P1;HPM_P2
2022/05/23 00:01:55;;;;;;;1.35;1.35;;;;;;;11.40;100.00;97792.55;1632641;88;21095;-70
2022/05/23 00:04:24;;;;;;;1.60;1.37;;;;;;;11.30;100.00;97803.95;1611565;88;21236;-70
2022/05/23 00:06:51;;;;;;;1.75;1.65;;;;;;;11.19;100.00;97825.84;1633122;88;21553;-69
2022/05/23 00:09:20;;;;;;;1.40;1.32;;;;;;;11.07;100.00;97843.91;1632853;88;21044;-70
2022/05/23 00:11:49;;;;;;;1.35;1.25;;;;;;;10.94;100.00;97871.94;1633071;88;21127;-69
2022/05/23 00:14:19;;;;;;;2.27;1.70;;;;;;;10.78;100.00;97892.30;1623335;88;21066;-69
2022/05/23 00:16:49;;;;;;;1.62;1.50;;;;;;;10.65;100.00;97907.29;1611023;89;21087;-70
2022/05/23 00:19:16;;;;;;;2.47;1.60;;;;;;;10.54;100.00;97929.66;1599349;89;21511;-70
2022/05/23 00:24:13;;;;;;;3.92;1.80;;;;;;;10.30;100.00;97969.91;1568629;90;21065;-69
2022/05/23 00:26:43;;;;;;;3.62;1.50;;;;;;;10.19;100.00;97976.86;1588962;90;21607;-70
2022/05/23 00:29:10;;;;;;;3.27;1.80;;;;;;;10.09;100.00;97987.31;1589232;90;21094;-69
2022/05/23 00:35:17;;;;;;;2.45;2.05;;;;;;;9.99;100.00;97991.03;1568843;90;21500;-70
2022/05/23 00:36:51;;;;;;;3.27;1.90;;;;;;;9.77;100.00;97995.39;1611991;88;21033;-69
2022/05/23 00:39:19;;;;;;;1.62;1.50;;;;;;;9.63;100.00;98001.91;1612117;88;21124;-68
2022/05/23 00:44:34;;;;;;;3.42;2.08;;;;;;;9.42;100.00;98011.97;1612180;88;21534;-70
2022/05/23 00:47:20;;;;;;;2.83;1.98;;;;;;;9.33;100.00;98015.95;1611853;88;21057;-68
2022/05/23 00:49:47;;;;;;;2.20;2.00;;;;;;;9.25;100.00;98008.90;1612630;88;21070;-69
2022/05/23 00:52:33;;;;;;;2.20;2.00;;;;;;;9.11;100.00;98013.50;1613439;88;21057;-69
2022/05/23 00:55:07;;;;;;;2.30;2.10;;;;;;;9.03;100.00;98013.74;1558109;89;21119;-70
2022/05/23 00:57:37;;;;;;;2.62;2.12;;;;;;;8.96;100.00;98008.88;1558158;92;21029;-70
2022/05/23 01:00:06;;;;;;;6.00;2.22;;;;;;;8.89;100.00;98008.07;1558050;92;21124;-70
2022/05/23 01:02:36;;;;;;;3.50;2.10;;;;;;;8.83;100.00;98004.32;1558897;90;21615;-70
2022/05/23 01:05:08;;;;;;;2.70;1.92;;;;;;;8.80;100.00;98003.91;1559727;91;21134;-69
2022/05/23 01:07:35;;;;;;;2.12;2.02;;;;;;;8.74;100.00;97999.67;1559883;91;21551;-69
2022/05/23 01:10:03;;;;;;;3.13;2.07;;;;;;;8.67;100.00;97992.11;1559404;92;21110;-68
2022/05/23 01:12:30;;;;;;;2.90;2.13;;;;;;;8.61;100.00;97996.18;1538972;92;21086;-68
2022/05/23 01:14:59;;;;;;;2.27;1.80;;;;;;;8.59;100.00;98002.27;1591915;89;21070;-70
2022/05/23 01:17:30;;;;;;;3.40;2.20;;;;;;;8.56;100.00;97990.06;1605512;89;21066;-70
2022/05/23 01:19:59;;;;;;;2.22;2.02;;;;;;;8.51;100.00;97993.37;1603740;89;21043;-68
2022/05/23 01:22:56;;;;;;;2.90;2.27;;;;;;;8.48;100.00;97983.52;1579293;91;21171;-69
2022/05/23 01:25:34;;;;;;;3.27;2.43;;;;;;;8.42;100.00;97981.64;1576417;91;21063;-70
2022/05/23 01:28:02;;;;;;;;;;;;;;;8.35;100.00;97978.42;1581894;91;21078;-68
2022/05/23 01:30:30;;;;;;;3.60;2.20;;;;;;;8.31;100.00;97978.53;1579393;91;20477;-69
2022/05/23 01:33:09;;;;;;;2.33;2.07;;;;;;;8.27;100.00;97985.88;1551571;92;21033;-69
2022/05/23 01:35:37;;;;;;;2.40;2.20;;;;;;;8.21;100.00;97979.45;1551309;92;21597;-70
2022/05/23 01:38:05;;;;;;;5.13;2.40;;;;;;;8.17;100.00;97988.46;1551406;92;21137;-69
2022/05/23 01:40:50;;;;;;;2.20;2.00;;;;;;;8.11;100.00;97985.27;1551362;92;21068;-69
2022/05/23 01:43:23;;;;;;;3.23;2.20;;;;;;;8.06;100.00;97989.61;1551408;92;21117;-69
2022/05/23 01:45:52;;;;;;;3.13;2.60;;;;;;;8.03;100.00;97989.48;1551489;92;21077;-69
2022/05/23 01:48:21;;;;;;;4.23;2.10;;;;;;;7.99;100.00;97980.99;1551466;92;21538;-69
2022/05/23 01:50:48;;;;;;;4.17;2.40;;;;;;;7.99;100.00;97981.52;1556954;91;21714;-69
2022/05/23 01:53:17;;;;;;;4.27;2.20;;;;;;;7.96;100.00;97979.23;1580525;91;21064;-69
2022/05/23 01:55:46;;;;;;;3.50;2.50;;;;;;;7.92;100.00;97973.42;1576870;91;21129;-69
2022/05/23 02:01:12;;;;;;;2.63;2.17;;;;;;;7.86;100.00;97973.41;1533240;93;21080;-69
2022/05/23 02:03:33;;;;;;;5.83;2.70;;;;;;;7.75;100.00;97958.17;1533552;92;21159;-69
2022/05/23 02:06:00;;;;;;;3.53;2.50;;;;;;;7.70;100.00;97950.41;1526223;93;21229;-69
2022/05/23 02:08:27;;;;;;;2.80;2.50;;;;;;;7.68;100.00;97946.56;1524425;94;22057;-69
2022/05/23 02:10:55;;;;;;;4.37;2.47;;;;;;;7.67;100.00;97934.17;1524354;94;21169;-69
2022/05/23 02:13:23;;;;;;;4.20;2.50;;;;;;;7.65;100.00;97918.75;1523980;94;21167;-68
2022/05/23 02:15:51;;;;;;;4.80;2.67;;;;;;;7.64;100.00;97912.23;1512433;95;21085;-69
2022/05/23 02:18:20;;;;;;;2.83;2.53;;;;;;;7.67;100.00;97903.76;1509213;95;21124;-68
2022/05/23 02:20:47;;;;;;;3.30;2.33;;;;;;;7.67;100.00;97902.41;1512266;95;21632;-68
2022/05/23 02:23:14;;;;;;;5.00;3.10;;;;;;;7.69;100.00;97903.85;1512139;95;21162;-69
2022/05/23 02:25:42;;;;;;;3.67;3.17;;;;;;;7.70;100.00;97890.73;1512520;95;21080;-69
2022/05/23 02:28:20;;;;;;;4.27;3.20;;;;;;;7.72;100.00;97886.46;1474805;97;21140;-68
2022/05/23 02:30:48;;;;;;;4.57;3.17;;;;;;;7.75;100.00;97878.80;1471823;97;21097;-68
2022/05/23 02:33:17;;;;;;;4.80;3.27;;;;;;;7.79;100.00;97859.89;1471709;97;21157;-68
2022/05/23 02:35:47;;;;;;;5.63;3.53;;;;;;;7.83;100.00;97859.48;1471795;97;21140;-69
2022/05/23 02:38:14;;;;;;;5.17;3.40;;;;;;;7.84;100.00;97835.56;1472126;97;21098;-68
2022/05/23 02:40:41;;;;;;;5.10;3.80;;;;;;;7.87;100.00;97841.36;1474089;97;21093;-69
2022/05/23 02:43:08;;;;;;;5.83;3.77;;;;;;;7.88;100.00;97838.99;1471908;97;21606;-69
2022/05/23 02:45:38;;;;;;;6.80;3.90;;;;;;;7.88;100.00;97843.03;1471823;97;21097;-69
2022/05/23 02:48:07;;;;;;;5.37;3.67;;;;;;;7.86;100.00;97849.14;1471662;97;21168;-69
2022/05/23 02:50:34;;;;;;;9.97;3.83;;;;;;;7.86;100.00;97857.21;1471806;96;21200;-69
2022/05/23 02:53:01;;;;;;;7.70;4.53;;;;;;;7.88;100.00;97857.83;1471741;97;21162;-69
2022/05/23 02:55:30;;;;;;;10.03;4.40;;;;;;;7.88;100.00;97851.59;1514984;93;21074;-68
2022/05/23 02:57:58;;;;;;;9.13;4.73;;;;;;;7.86;100.00;97850.48;1514933;94;21082;-68
2022/05/23 03:00:27;;;;;;;8.77;4.57;;;;;;;7.86;100.00;97851.83;1533907;93;21169;-69
2022/05/23 03:03:01;;;;;;;9.10;4.77;;;;;;;7.90;100.00;97854.94;1530678;94;21098;-69
2022/05/23 03:05:45;;;;;;;7.07;4.07;;;;;;;7.94;100.00;97855.64;1638285;83;21093;-69
2022/05/23 03:08:16;;;;;;;6.60;4.00;;;;;;;7.97;100.00;97858.45;1698940;84;21022;-71
2022/05/23 03:10:44;;;;;;;7.33;3.80;;;;;;;7.99;100.00;97859.88;1671981;84;21058;-70
2022/05/23 03:13:13;;;;;;;7.63;4.43;;;;;;;8.04;100.00;97859.77;1699389;84;21078;-68
2022/05/23 03:15:40;;;;;;;7.60;3.80;;;;;;;8.07;100.00;97861.52;1698919;84;21089;-69
2022/05/23 03:18:07;;;;;;;6.00;3.97;;;;;;;8.12;100.00;97863.60;1699256;84;21151;-68
2022/05/23 03:20:36;;;;;;;8.43;4.73;;;;;;;8.16;100.00;97867.52;1698491;84;21074;-69
2022/05/23 03:28:37;;;;;;;10.40;4.60;;;;;;;8.24;100.00;97869.19;1698731;84;21094;-68
2022/05/23 03:31:05;;;;;;;8.93;4.27;;;;;;;8.29;100.00;97880.16;1699242;84;21125;-69
2022/05/23 03:33:33;;;;;;;7.30;4.37;;;;;;;8.32;100.00;97885.96;1699111;84;21594;-69
2022/05/23 03:36:00;;;;;;;8.10;4.30;;;;;;;8.36;100.00;97894.45;1698541;84;21038;-69
2022/05/23 03:38:28;;;;;;;6.07;4.10;;;;;;;8.42;100.00;97903.05;1699023;84;22329;-69
2022/05/23 03:40:55;;;;;;;8.80;4.50;;;;;;;8.48;100.00;97910.80;1699062;84;21032;-69
2022/05/23 03:43:22;;;;;;;6.60;4.07;;;;;;;8.56;100.00;97917.33;1698810;84;21061;-69
2022/05/23 03:45:49;;;;;;;5.93;3.77;;;;;;;8.68;100.00;97921.56;1699135;83;21113;-68
2022/05/23 03:48:17;;;;;;;6.23;4.10;;;;;;;8.80;100.00;97929.31;1699329;84;21054;-68
2022/05/23 03:50:45;;;;;;;6.17;4.07;;;;;;;8.92;100.00;97930.81;1699335;83;21093;-68
2022/05/23 03:53:12;;;;;;;4.50;3.53;;;;;;;9.02;100.00;97939.28;1698861;84;21054;-70
2022/05/23 03:55:51;;;;;;;7.70;4.60;;;;;;;9.10;100.00;97950.34;1695885;84;21086;-69
2022/05/23 03:58:24;;;;;;;7.20;4.50;;;;;;;9.17;100.00;97956.57;1699098;84;21062;-69
2022/05/23 04:01:16;;;;;;;6.58;3.85;;;;;;;9.25;100.00;97962.23;1695383;84;21124;-68
2022/05/23 04:03:46;;;;;;;6.37;3.93;;;;;;;9.35;100.00;97967.16;1615760;86;21101;-70
2022/05/23 04:06:13;;;;;;;4.50;3.70;;;;;;;9.45;100.00;97970.23;1615917;89;21566;-68
2022/05/23 04:08:48;;;;;;;7.03;3.92;;;;;;;9.57;100.00;97983.36;1612535;89;21111;-69
2022/05/23 04:11:15;;;;;;;6.22;4.03;;;;;;;9.68;100.00;97988.09;1595012;89;21061;-68
2022/05/23 04:13:42;;;;;;;6.08;3.90;;;;;;;9.78;100.00;98016.48;1615898;89;21033;-68
2022/05/23 04:16:09;;;;;;;6.50;3.80;;;;;;;9.83;100.00;98039.61;1594961;89;21642;-68
2022/05/23 04:18:38;;;;;;;7.53;4.00;;;;;;;9.91;100.00;98073.63;1615994;89;21090;-69
2022/05/23 04:21:05;;;;;;;7.53;4.00;;;;;;;10.03;100.00;98090.80;1616018;89;21077;-69
2022/05/23 04:23:33;;;;;;;5.15;3.65;;;;;;;10.18;100.00;98111.61;1615846;89;21073;-68
2022/05/23 04:26:08;;;;;;;10.15;4.42;;;;;;;10.39;100.00;98125.34;1616109;89;21060;-68
2022/05/23 04:28:35;;;;;;;7.15;4.03;;;;;;;10.61;100.00;98137.98;1615947;89;21550;-68
2022/05/23 04:31:03;;;;;;;8.80;4.03;;;;;;;10.85;100.00;98139.58;1616001;89;21122;-69
2022/05/23 04:36:19;;;;;;;6.60;3.58;;;;;;;11.24;100.00;98198.47;1615983;87;21065;-69
2022/05/23 04:38:47;;;;;;;6.03;3.80;;;;;;;11.46;100.00;98215.16;1594722;89;21050;-70
2022/05/23 04:41:15;;;;;;;5.05;3.72;;;;;;;11.63;100.00;98248.43;1615871;89;21057;-68
2022/05/23 04:43:47;;;;;;;8.20;3.83;;;;;;;11.78;100.00;98271.94;1595655;89;21073;-68
2022/05/23 04:46:16;;;;;;;9.03;3.80;;;;;;;11.86;100.00;98325.80;1615777;89;21094;-69
2022/05/23 04:51:39;;;;;;;5.62;3.80;;;;;;;12.00;100.00;98373.14;1615695;89;21101;-68
2022/05/23 04:54:07;;;;;;;7.10;3.62;;;;;;;12.24;100.00;98369.59;1615900;89;21061;-69
2022/05/23 04:56:37;;;;;;;6.53;3.72;;;;;;;12.51;100.00;98370.15;1594892;89;21535;-69
2022/05/23 04:59:06;;;;;;;8.43;4.20;;;;;;;12.76;100.00;98392.31;1612658;89;21057;-68
2022/05/23 05:01:34;;;;;;;6.30;3.98;;;;;;;12.79;100.00;98430.37;1667465;86;21072;-69
2022/05/23 05:04:01;;;;;;;6.12;3.80;;;;;;;12.72;100.00;98454.31;1670646;86;21037;-70
2022/05/23 05:06:30;;;;;;;8.23;4.10;;;;;;;12.65;100.00;98489.34;1663673;85;21106;-69
2022/05/23 05:08:58;;;;;;;6.58;3.85;;;;;;;12.60;100.00;98495.41;1681676;85;21028;-69
2022/05/23 05:11:27;;;;;;;63.33;52.75;;;;;;;12.57;100.00;98512.65;1663005;85;21516;-70
2022/05/23 05:14:08;;;;;;;67.37;58.33;;;;;;;12.55;100.00;98511.51;1612808;87;21125;-69
2022/05/23 05:16:38;;;;;;;31.17;14.83;;;;;;;12.75;100.00;98491.52;1584908;89;21563;-69
2022/05/23 05:19:06;;;;;;;8.33;4.37;;;;;;;12.94;100.00;98494.56;1607395;89;21604;-70
2022/05/23 05:21:51;;;;;;;6.97;4.08;;;;;;;13.14;100.00;98490.81;1606619;89;21035;-71
2022/05/23 05:24:37;;;;;;;15.90;6.35;;;;;;;13.36;100.00;98495.31;1604443;89;21081;-69
2022/05/23 05:27:10;;;;;;;24.13;16.30;;;;;;;13.53;100.00;98517.23;1605696;89;21095;-69
2022/05/23 05:29:37;;;;;;;7.83;4.35;;;;;;;13.66;100.00;98527.41;1584328;89;21060;-71
2022/05/23 05:32:15;;;;;;;24.30;17.05;;;;;;;13.79;100.00;98531.02;1609575;89;21568;-70
2022/05/23 05:35:03;;;;;;;52.75;42.00;;;;;;;13.94;100.00;98536.89;1585123;89;21506;-68
2022/05/23 05:37:35;;;;;;;11.57;6.17;;;;;;;14.13;100.00;98537.68;1553944;92;21638;-70
2022/05/23 05:40:03;;;;;;;13.13;6.03;;;;;;;14.31;100.00;98544.13;1545588;90;21556;-69
2022/05/23 05:42:38;;;;;;;14.40;7.72;;;;;;;14.55;100.00;98559.95;1558825;92;21131;-70
2022/05/23 05:45:14;;;;;;;14.45;9.38;;;;;;;14.55;100.00;98559.95;1581434;90;21084;-71
2022/05/23 05:47:43;;;;;;;25.00;15.50;;;;;;;14.80;100.00;98574.24;1513150;94;21615;-69
2022/05/23 05:50:17;;;;;;;10.30;5.97;;;;;;;14.80;100.00;98574.24;1519300;93;21547;-71
2022/05/23 05:52:55;;;;;;;147.05;105.15;;;;;;;14.93;100.00;98585.97;1526776;93;21166;-69
2022/05/23 05:55:22;;;;;;;13.60;7.28;;;;;;;15.10;100.00;98607.86;1511569;93;21177;-69
2022/05/23 05:57:51;;;;;;;7.42;3.87;;;;;;;15.28;100.00;98616.45;1511164;95;21100;-69
2022/05/23 06:00:20;;;;;;;5.10;3.50;;;;;;;15.45;100.00;98626.94;1511583;95;21138;-69
2022/05/23 06:02:50;;;;;;;4.22;3.10;;;;;;;15.63;100.00;98636.87;1508157;95;21181;-70
2022/05/23 06:05:20;;;;;;;5.08;3.20;;;;;;;15.81;100.00;98664.58;1519592;91;21646;-67
2022/05/23 06:13:53;;;;;;;5.60;3.20;;;;;;;15.94;100.00;98762.98;1586331;89;21050;-70
2022/05/23 06:16:37;;;;;;;7.55;3.10;;;;;;;15.96;100.00;98770.92;1540047;93;21116;-70
2022/05/23 06:19:06;;;;;;;6.22;2.90;;;;;;;15.97;100.00;98788.41;1543568;93;21119;-69
2022/05/23 06:21:35;;;;;;;4.72;3.00;;;;;;;15.82;100.00;98818.02;1540498;93;21096;-69
2022/05/23 06:24:02;;;;;;;6.72;2.90;;;;;;;15.67;100.00;98822.51;1544248;93;21037;-70
2022/05/23 06:26:34;;;;;;;4.78;2.83;;;;;;;15.70;100.00;98805.16;1536789;93;21078;-70
2022/05/23 06:29:20;;;;;;;6.03;3.00;;;;;;;15.75;100.00;98805.86;1536315;93;21162;-70
2022/05/23 06:31:48;;;;;;;25.00;19.62;;;;;;;15.79;100.00;98807.03;1540071;93;21121;-72
2022/05/23 06:34:17;;;;;;;15.93;10.28;;;;;;;15.75;100.00;98829.84;1527063;93;21116;-70
2022/05/23 06:36:46;;;;;;;7.83;4.40;;;;;;;15.71;100.00;98812.28;1545830;93;21280;-71
2022/05/23 06:39:13;;;;;;;6.83;4.53;;;;;;;15.84;100.00;98810.43;1546707;93;21134;-71
2022/05/23 06:41:58;;;;;;;8.98;4.05;;;;;;;16.01;100.00;98810.58;1546261;93;21089;-72
2022/05/23 06:44:45;;;;;;;5.12;3.00;;;;;;;16.14;100.00;98811.14;1575773;90;21059;-72
2022/05/23 06:47:31;;;;;;;6.45;3.22;;;;;;;16.25;100.00;98824.48;1597750;89;21649;-71
2022/05/23 06:50:17;;;;;;;4.85;2.83;;;;;;;16.21;100.00;98844.30;1597546;89;21075;-72
2022/05/23 06:53:03;;;;;;;4.37;2.90;;;;;;;16.28;100.00;98845.02;1597620;89;21596;-72
2022/05/23 06:55:36;;;;;;;5.28;3.12;;;;;;;16.41;100.00;98844.75;1594571;90;21079;-70
2022/05/23 06:58:03;;;;;;;11.88;3.30;;;;;;;16.52;100.00;98858.12;1597342;90;21087;-71
2022/05/23 07:00:31;;;;;;;5.85;2.92;;;;;;;16.61;100.00;98865.37;1597338;90;21150;-72
2022/05/23 07:03:00;;;;;;;4.87;2.90;;;;;;;16.76;100.00;98864.90;1594819;90;22118;-72
2022/05/23 07:14:07;;;;;;;5.78;3.22;;;;;;;16.99;100.00;98894.91;1588288;90;21107;-71
2022/05/23 07:16:35;;;;;;;9.98;3.75;;;;;;;17.15;100.00;98898.78;1575738;91;21067;-71
2022/05/23 07:21:35;;;;;;;4.35;3.10;;;;;;;17.34;100.00;98901.35;1589828;90;21123;-71
2022/05/23 07:24:11;;;;;;;95.62;69.42;;;;;;;17.47;100.00;98898.31;1612487;88;21131;-70
2022/05/23 07:26:40;;;;;;;12.68;7.30;;;;;;;17.46;100.00;98918.53;1548743;93;21101;-71
2022/05/23 07:29:08;;;;;;;4.97;3.20;;;;;;;17.48;100.00;98929.23;1548871;93;21109;-69
2022/05/23 07:31:37;;;;;;;4.20;3.02;;;;;;;17.34;100.00;98942.33;1548693;93;21157;-69
2022/05/23 07:34:04;;;;;;;10.23;4.78;;;;;;;17.21;100.00;98947.51;1548763;93;21050;-70
2022/05/23 07:36:32;;;;;;;8.35;4.70;;;;;;;17.46;100.00;98942.58;1548705;93;21140;-69
2022/05/23 07:39:02;;;;;;;8.83;4.25;;;;;;;17.76;100.00;98945.62;1548771;93;21054;-69
2022/05/23 07:41:47;;;;;;;5.42;3.27;;;;;;;18.13;100.00;98941.63;1540793;92;21134;-70
2022/05/23 07:44:16;;;;;;;4.83;3.30;;;;;;;18.37;100.00;98956.82;1540495;92;21141;-69
2022/05/23 07:46:43;;;;;;;4.90;3.22;;;;;;;18.42;100.00;98960.19;1540150;93;21136;-70
2022/05/23 07:49:12;;;;;;;5.65;3.00;;;;;;;18.66;100.00;98969.07;1540800;92;21165;-72
2022/05/23 07:51:41;;;;;;;7.70;4.45;;;;;;;18.92;100.00;98980.42;1540802;93;21090;-71
2022/05/23 08:02:28;;;;;;;7.00;3.40;;;;;;;19.77;100.00;99028.98;1541026;92;21198;-69
2022/05/23 08:04:58;;;;;;;9.43;3.35;;;;;;;19.86;100.00;99032.11;1540542;93;21107;-69
2022/05/23 08:07:28;;;;;;;14.50;7.80;;;;;;;20.03;100.00;99028.74;1564328;89;21051;-70
2022/05/23 08:10:00;;;;;;;7.80;3.50;;;;;;;20.35;100.00;99029.89;1595022;89;21102;-70
2022/05/23 08:12:28;;;;;;;5.10;3.15;;;;;;;20.75;100.00;99031.35;1614330;89;21086;-70
2022/05/23 08:14:57;;;;;;;5.45;2.80;;;;;;;21.00;100.00;99034.83;1602996;89;21648;-70
2022/05/23 08:17:26;;;;;;;4.25;2.62;;;;;;;21.20;100.00;99037.72;1524331;93;21561;-71
2022/05/23 08:19:54;;;;;;;4.55;2.75;;;;;;;21.42;100.00;99039.49;1501866;94;21090;-70
2022/05/23 08:22:23;;;;;;;8.50;3.05;;;;;;;21.32;100.00;99044.93;1504655;95;21524;-72
2022/05/23 08:24:52;;;;;;;4.47;2.80;;;;;;;21.11;100.00;99049.50;1492217;96;21615;-69
2022/05/23 08:27:20;;;;;;;7.35;3.33;;;;;;;20.92;100.00;99057.32;1492348;96;21073;-70
2022/05/23 08:29:49;;;;;;;5.12;2.90;;;;;;;20.67;100.00;99055.47;1500618;95;21112;-71
2022/05/23 08:32:17;;;;;;;3.80;2.40;;;;;;;20.57;100.00;99049.84;1512879;94;21130;-69
2022/05/23 08:34:48;;;;;;;6.60;3.20;;;;;;;20.84;100.00;99049.84;1513431;95;21057;-70
2022/05/23 08:37:15;;;;;;;5.12;3.62;;;;;;;21.05;100.00;99044.48;1513286;95;21132;-71
2022/05/23 08:39:43;;;;;;;7.08;3.58;;;;;;;21.00;100.00;99051.31;1512613;95;21574;-70
2022/05/23 08:42:51;;;;;;;6.12;3.70;;;;;;;20.85;100.00;99049.30;1512872;95;21082;-68
2022/05/23 08:45:27;;;;;;;10.98;6.53;;;;;;;20.76;100.00;99046.20;1518494;93;21099;-71
2022/05/23 08:48:20;;;;;;;5.28;3.10;;;;;;;20.84;100.00;99047.63;1512564;93;21126;-70
2022/05/23 08:51:00;;;;;;;7.47;2.90;;;;;;;21.32;100.00;99037.53;1505330;94;21151;-70
2022/05/23 08:53:37;;;;;;;3.80;2.60;;;;;;;21.98;100.00;99049.95;1510453;94;21047;-68
2022/05/23 08:56:39;;;;;;;6.97;3.10;;;;;;;22.13;93.19;99052.76;1499085;94;21195;-70
2022/05/23 08:59:27;;;;;;;8.80;3.75;;;;;;;22.09;90.33;99049.44;1487768;96;21084;-70
2022/05/23 09:02:01;;;;;;;13.60;8.53;;;;;;;21.96;90.71;99052.16;1504266;94;21043;-72
2022/05/23 09:04:47;;;;;;;25.23;21.82;;;;;;;21.96;100.00;99041.14;1490076;94;21104;-73
2022/05/23 09:07:33;;;;;;;6.75;3.20;;;;;;;22.41;100.00;99042.36;1494583;95;21114;-71
2022/05/23 09:10:04;;;;;;;10.18;8.73;;;;;;;22.96;92.50;99038.52;1460648;97;21087;-70
2022/05/23 09:12:31;;;;;;;12.23;9.08;;;;;;;23.40;83.27;99029.64;1474991;97;21178;-69
2022/05/23 09:14:59;;;;;;;8.88;6.67;;;;;;;23.39;76.97;99028.53;1449676;97;21128;-70
2022/05/23 09:17:32;;;;;;;46.28;28.20;;;;;;;23.49;85.39;99025.75;1438927;100;21144;-62
2022/05/23 09:20:18;;;;;;;23.90;15.70;;;;;;;23.73;76.11;99029.23;1445146;97;21604;-64
2022/05/23 09:22:52;;;;;;;10.15;4.92;;;;;;;23.66;67.06;99019.34;1560601;90;21555;-78
2022/05/23 09:25:23;;;;;;;7.22;5.15;;;;;;;23.50;72.26;99029.61;1567040;90;21021;-77
2022/05/23 09:28:10;;;;;;;3.05;2.60;;;;;;;23.39;62.95;99021.11;1527460;93;21134;-76
2022/05/23 09:30:41;;;;;;;6.95;3.27;;;;;;;22.87;60.34;99023.09;1527049;93;21102;-78
2022/05/23 09:33:12;;;;;;;8.25;4.00;;;;;;;22.30;65.51;99035.20;1525767;93;21072;-78
2022/05/23 09:35:49;;;;;;;7.83;3.47;;;;;;;22.08;70.37;99042.26;1517100;95;21108;-75
2022/05/23 09:38:29;;;;;;;17.52;12.75;;;;;;;21.95;71.79;99035.34;1516726;95;21154;-75
2022/05/23 09:40:58;;;;;;;38.85;33.88;;;;;;;21.68;67.26;99030.85;1502786;95;21145;-77
2022/05/23 09:49:21;;;;;;;24.77;19.20;;;;;;;20.67;77.56;99038.17;1422819;101;21161;-71
2022/05/23 09:52:05;;;;;;;38.13;28.38;;;;;;;20.36;76.72;99043.88;1423015;101;21138;-73
2022/05/23 09:54:52;;;;;;;8.50;3.20;;;;;;;20.16;72.71;99037.10;1421002;101;21181;-75
2022/05/23 09:57:35;;;;;;;8.83;3.30;;;;;;;19.85;72.16;99051.04;1375553;104;21155;-67
2022/05/23 10:00:23;;;;;;;8.05;3.10;;;;;;;19.65;73.19;99048.83;1376125;104;21241;-72
2022/05/23 10:03:01;;;;;;;4.78;2.67;;;;;;;19.63;76.93;99056.48;1379734;102;21160;-67
2022/05/23 10:05:40;;;;;;;8.00;4.20;;;;;;;19.66;75.69;99049.95;1407784;99;21174;-66
2022/05/23 10:08:15;;;;;;;6.95;4.08;;;;;;;19.72;74.09;99057.69;1448233;97;21202;-70
2022/05/23 10:10:54;;;;;;;5.42;3.10;;;;;;;19.58;70.96;99064.64;1434569;100;21090;-70
2022/05/23 10:13:37;;;;;;;5.47;3.00;;;;;;;19.24;72.34;99064.72;1435073;99;21126;-69
2022/05/23 10:16:20;;;;;;;7.00;2.90;;;;;;;18.86;75.34;99056.76;1447018;99;21106;-69
2022/05/23 10:19:04;;;;;;;76.00;62.53;;;;;;;18.63;81.01;99059.91;1425519;99;21063;-72
2022/05/23 10:21:34;;;;;;;;;;;;;;;18.44;83.20;99070.24;1368347;104;21185;-71
2022/05/23 10:24:08;;;;;;;8.80;4.33;;;;;;;18.18;88.25;99070.30;1373734;102;20157;-71
2022/05/23 10:26:54;;;;;;;5.58;3.45;;;;;;;18.00;90.80;99068.59;1397900;102;21106;-71
2022/05/23 10:29:59;;;;;;;10.80;6.58;;;;;;;17.92;92.60;99069.82;1394265;102;21613;-71
2022/05/23 10:32:48;;;;;;;7.67;3.92;;;;;;;17.88;94.28;99067.25;1396744;102;21079;-72
2022/05/23 10:35:31;;;;;;;8.83;3.35;;;;;;;17.87;95.07;99065.61;1391227;102;21102;-71
2022/05/23 10:43:29;;;;;;;65.03;53.42;;;;;;;17.42;100.00;99070.36;1439107;99;21219;-72
2022/05/23 10:46:01;;;;;;;12.45;5.72;;;;;;;17.30;100.00;99072.27;1470150;96;21556;-73
2022/05/23 10:48:39;;;;;;;5.87;3.62;;;;;;;17.18;100.00;99066.83;1476297;96;21209;-71
2022/05/23 10:51:27;;;;;;;7.37;3.30;;;;;;;17.07;100.00;99065.22;1505926;95;21046;-73
2022/05/23 10:54:30;;;;;;;77.58;56.15;;;;;;;17.00;100.00;99063.15;1525522;92;21482;-72
2022/05/23 10:57:15;;;;;;;40.52;29.87;;;;;;;16.93;100.00;99071.13;1502098;94;21138;-71
2022/05/23 10:59:55;;;;;;;9.60;5.50;;;;;;;16.86;100.00;99073.46;1518549;94;21097;-73
2022/05/23 11:02:44;;;;;;;9.50;5.25;;;;;;;16.71;100.00;99071.67;1518656;94;21578;-70
2022/05/23 11:05:35;;;;;;;5.30;3.65;;;;;;;16.56;100.00;99059.03;1518138;93;21653;-71
2022/05/23 11:08:42;;;;;;;4.53;3.30;;;;;;;16.52;100.00;99068.22;1505220;94;21166;-71
2022/05/23 11:11:33;;;;;;;5.65;2.80;;;;;;;16.50;100.00;99067.59;1600570;89;21480;-70
2022/05/23 11:14:33;;;;;;;4.85;2.90;;;;;;;16.47;100.00;99058.00;1615676;87;21082;-70
2022/05/23 11:17:34;;;;;;;4.25;2.52;;;;;;;16.43;100.00;99062.27;1647932;87;21082;-70
2022/05/23 11:20:25;;;;;;;13.45;6.12;;;;;;;16.49;100.00;99058.59;1647111;87;21038;-71
2022/05/23 11:23:00;;;;;;;7.17;3.40;;;;;;;16.55;100.00;99058.72;1647424;87;21603;-71
2022/05/23 11:25:43;;;;;;;5.67;3.05;;;;;;;16.57;100.00;99062.86;1629991;88;21181;-72
2022/05/23 11:34:13;;;;;;;4.12;2.65;;;;;;;16.52;100.00;99051.84;1636005;86;21003;-71
2022/05/23 11:37:01;;;;;;;49.67;35.08;;;;;;;16.46;100.00;99056.31;1644750;87;21066;-72
2022/05/23 11:40:06;;;;;;;8.73;4.75;;;;;;;16.41;100.00;99063.55;1614617;89;21547;-69
2022/05/23 11:42:53;;;;;;;7.30;4.10;;;;;;;16.34;100.00;99066.36;1607200;89;21042;-71
2022/05/23 11:45:57;;;;;;;6.35;3.15;;;;;;;16.29;100.00;99067.08;1613910;88;21559;-70
2022/05/23 11:48:41;;;;;;;11.03;4.92;;;;;;;16.30;100.00;99070.09;1608594;89;21047;-70
2022/05/23 11:51:18;;;;;;;10.75;6.47;;;;;;;16.27;100.00;99070.58;1610667;89;21543;-71
2022/05/23 11:53:58;;;;;;;8.85;4.53;;;;;;;16.33;100.00;99070.17;1610450;88;21105;-69
2022/05/23 11:56:55;;;;;;;9.38;3.85;;;;;;;16.44;100.00;99068.00;1608289;88;21057;-71
2022/05/23 11:59:30;;;;;;;17.35;12.07;;;;;;;16.62;100.00;99069.00;1561193;91;21099;-71
2022/05/23 12:02:12;;;;;;;7.90;3.40;;;;;;;16.85;100.00;99066.33;1552217;91;21070;-69
2022/05/23 12:04:55;;;;;;;3.95;3.35;;;;;;;17.02;100.00;99073.84;1552041;91;22424;-70
2022/05/23 12:07:42;;;;;;;6.37;3.10;;;;;;;17.15;100.00;99070.86;1557779;91;21189;-69
2022/05/23 12:10:30;;;;;;;8.18;3.52;;;;;;;17.22;100.00;99073.47;1569434;91;21066;-69
2022/05/23 12:13:29;;;;;;;7.67;3.90;;;;;;;17.17;100.00;99076.09;1568043;91;21067;-70
2022/05/23 12:15:58;;;;;;;7.53;3.85;;;;;;;17.11;100.00;99079.23;1571232;91;21059;-69
2022/05/23 12:18:30;;;;;;;5.67;3.60;;;;;;;17.08;100.00;99075.61;1571252;91;21046;-68
2022/05/23 12:20:59;;;;;;;6.08;3.10;;;;;;;17.02;100.00;99079.30;1544552;91;21133;-69
2022/05/23 12:23:43;;;;;;;4.70;3.08;;;;;;;16.98;100.00;99080.30;1589754;90;21509;-69
2022/05/23 12:26:15;;;;;;;5.47;2.95;;;;;;;16.95;100.00;99079.41;1542042;90;21106;-70
2022/05/23 12:29:02;;;;;;;4.87;2.70;;;;;;;16.87;100.00;99083.33;1592303;90;21050;-69
2022/05/23 12:31:31;;;;;;;3.85;2.80;;;;;;;16.77;100.00;99085.77;1591003;90;21014;-70
2022/05/23 12:34:10;;;;;;;6.72;2.72;;;;;;;16.66;100.00;99085.19;1560783;90;21158;-69
2022/05/23 12:36:50;;;;;;;4.40;2.80;;;;;;;16.62;100.00;99083.46;1624460;85;21079;-68
2022/05/23 12:39:53;;;;;;;6.20;2.70;;;;;;;16.53;100.00;99092.23;1650329;86;21468;-68
2022/05/23 12:42:55;;;;;;;3.40;3.00;;;;;;;16.45;100.00;99083.83;1654675;85;21114;-68
2022/05/23 12:45:44;;;;;;;3.80;2.65;;;;;;;16.41;100.00;99088.92;1652033;86;21007;-70
2022/05/23 12:48:44;;;;;;;4.33;2.75;;;;;;;16.39;100.00;99086.96;1645355;86;21038;-70
2022/05/23 12:52:16;;;;;;;3.95;2.75;;;;;;;16.39;100.00;99089.69;1654980;86;21059;-70
2022/05/23 12:54:55;;;;;;;9.83;2.92;;;;;;;16.42;100.00;99090.59;1669079;85;21042;-69
2022/05/23 12:57:46;;;;;;;3.50;2.70;;;;;;;16.39;100.00;99094.33;1593327;89;20975;-69
2022/05/23 13:00:16;;;;;;;4.20;3.50;;;;;;;16.33;100.00;99088.73;1591562;89;21087;-69
2022/05/23 13:03:01;;;;;;;7.22;3.10;;;;;;;16.26;100.00;99089.90;1596315;90;21102;-69
2022/05/23 13:05:51;;;;;;;3.80;2.70;;;;;;;16.25;100.00;99093.13;1597566;89;21158;-70
2022/05/23 13:08:34;;;;;;;7.17;4.40;;;;;;;16.19;100.00;99095.44;1607875;89;21126;-69